createdAt,value
2019-01-29T00:00:31.470Z,6.40
2019-01-29T00:03:00.227Z,5.73
2019-01-29T00:05:29.009Z,6.77
2019-01-29T00:07:57.719Z,7.00
2019-01-29T00:10:26.372Z,6.97
2019-01-29T00:12:54.989Z,6.67
2019-01-29T00:15:23.749Z,6.50
2019-01-29T00:17:52.472Z,7.27
2019-01-29T00:20:21.152Z,7.67
2019-01-29T00:22:49.801Z,7.57
2019-01-29T00:25:18.662Z,8.13
2019-01-29T00:27:47.390Z,8.07
2019-01-29T00:30:16.418Z,8.00
2019-01-29T00:32:45.181Z,8.33
2019-01-29T00:35:13.903Z,7.70
2019-01-29T00:37:42.475Z,7.50
2019-01-29T00:40:13.545Z,8.20
2019-01-29T00:43:01.532Z,8.57
2019-01-29T00:45:30.280Z,8.17
2019-01-29T00:47:58.977Z,7.70
2019-01-29T00:50:27.624Z,8.27
2019-01-29T00:52:56.383Z,8.47
2019-01-29T00:55:25.001Z,7.73
2019-01-29T00:57:53.651Z,7.80
2019-01-29T01:00:24.407Z,7.67
2019-01-29T01:02:53.124Z,7.77
2019-01-29T01:05:21.889Z,7.77
2019-01-29T01:07:50.649Z,7.70
2019-01-29T01:10:21.012Z,8.07
2019-01-29T01:12:49.657Z,7.27
2019-01-29T01:15:18.415Z,7.10
2019-01-29T01:17:47.179Z,6.60
2019-01-29T01:20:18.167Z,7.13
2019-01-29T01:22:51.164Z,7.10
2019-01-29T01:25:17.696Z,6.83
2019-01-29T01:27:46.447Z,6.93
2019-01-29T01:30:17.201Z,7.23
2019-01-29T01:32:45.853Z,6.77
2019-01-29T01:35:14.719Z,6.27
2019-01-29T01:37:44.628Z,7.03
2019-01-29T01:40:16.489Z,6.30
2019-01-29T01:42:45.209Z,6.30
2019-01-29T01:45:13.969Z,6.93
2019-01-29T01:47:42.620Z,6.63
2019-01-29T01:50:13.403Z,6.77
2019-01-29T01:52:42.112Z,6.33
2019-01-29T01:55:13.372Z,6.17
2019-01-29T01:57:42.259Z,5.57
2019-01-29T02:00:14.019Z,6.30
2019-01-29T02:02:42.899Z,5.60
2019-01-29T02:05:11.899Z,5.73
2019-01-29T02:07:40.776Z,5.37
2019-01-29T02:10:21.035Z,4.67
2019-01-29T02:12:49.753Z,5.37
2019-01-29T02:15:18.514Z,5.60
2019-01-29T02:17:47.238Z,5.87
2019-01-29T02:20:17.212Z,5.80
2019-01-29T02:22:46.026Z,5.50
2019-01-29T02:25:15.137Z,6.00
2019-01-29T02:27:43.938Z,6.63
2019-01-29T02:30:23.833Z,6.60
2019-01-29T02:32:52.719Z,6.13
2019-01-29T02:35:21.361Z,6.03
2019-01-29T02:37:50.041Z,6.30
2019-01-29T02:40:26.641Z,5.97
2019-01-29T02:42:55.400Z,5.87
2019-01-29T02:45:24.366Z,6.30
2019-01-29T02:47:53.021Z,6.63
2019-01-29T02:50:21.772Z,6.30
2019-01-29T02:52:50.522Z,6.43
2019-01-29T02:55:19.240Z,6.67
2019-01-29T02:57:48.004Z,7.07
2019-01-29T03:00:19.030Z,6.87
2019-01-29T03:02:47.906Z,6.67
2019-01-29T03:05:17.924Z,6.07
2019-01-29T03:07:46.846Z,6.00
2019-01-29T03:10:18.474Z,6.47
2019-01-29T03:12:47.185Z,6.73
2019-01-29T03:15:21.365Z,6.60
2019-01-29T03:17:50.078Z,6.73
2019-01-29T03:20:18.835Z,7.77
2019-01-29T03:22:47.524Z,6.60
2019-01-29T03:25:16.248Z,7.33
2019-01-29T03:27:45.862Z,6.70
2019-01-29T03:30:19.670Z,7.00
2019-01-29T03:32:48.430Z,7.00
2019-01-29T03:35:17.184Z,8.37
2019-01-29T03:37:46.005Z,8.10
2019-01-29T03:40:23.258Z,8.70
2019-01-29T03:42:51.985Z,8.93
2019-01-29T03:45:20.736Z,9.17
2019-01-29T03:47:49.450Z,9.50
2019-01-29T03:50:20.320Z,8.63
2019-01-29T03:52:49.054Z,10.00
2019-01-29T03:55:17.810Z,9.17
2019-01-29T03:57:46.536Z,10.13
2019-01-29T04:00:17.589Z,9.57
2019-01-29T04:02:46.310Z,10.17
2019-01-29T04:05:15.082Z,10.67
2019-01-29T04:07:43.736Z,9.87
2019-01-29T04:10:16.190Z,10.43
2019-01-29T04:12:46.208Z,11.47
2019-01-29T04:15:16.846Z,11.13
2019-01-29T04:17:45.801Z,12.73
2019-01-29T04:20:19.383Z,13.10
2019-01-29T04:22:48.250Z,12.60
2019-01-29T04:25:17.183Z,13.57
2019-01-29T04:27:45.932Z,12.73
2019-01-29T04:30:19.869Z,13.50
2019-01-29T04:32:48.524Z,13.30
2019-01-29T04:35:17.518Z,12.80
2019-01-29T04:37:46.288Z,12.87
2019-01-29T04:41:15.630Z,12.90
2019-01-29T04:43:44.591Z,13.10
2019-01-29T04:46:13.471Z,13.80
2019-01-29T04:48:42.391Z,14.83
2019-01-29T04:51:11.143Z,14.57
2019-01-29T04:53:39.759Z,14.23
2019-01-29T04:56:08.520Z,14.80
2019-01-29T04:58:37.227Z,15.93
2019-01-29T05:01:05.928Z,17.57
2019-01-29T05:03:34.559Z,16.80
2019-01-29T05:06:04.719Z,17.77
2019-01-29T05:08:33.422Z,17.33
2019-01-29T05:11:02.081Z,17.53
2019-01-29T05:13:30.774Z,19.07
2019-01-29T05:15:59.362Z,20.17
2019-01-29T05:18:27.986Z,19.83
2019-01-29T05:20:56.611Z,18.93
2019-01-29T05:23:25.268Z,19.03
2019-01-29T05:25:53.969Z,18.83
2019-01-29T05:28:22.699Z,20.10
2019-01-29T05:30:51.394Z,22.50
2019-01-29T05:33:19.986Z,23.30
2019-01-29T05:35:48.751Z,25.30
2019-01-29T05:38:17.399Z,25.63
2019-01-29T05:40:46.097Z,27.50
2019-01-29T05:43:14.717Z,27.77
2019-01-29T05:45:43.302Z,29.33
2019-01-29T05:48:12.003Z,29.33
2019-01-29T05:50:40.662Z,28.13
2019-01-29T05:53:09.287Z,28.87
2019-01-29T05:55:38.020Z,29.07
2019-01-29T05:58:06.704Z,29.47
2019-01-29T06:00:37.112Z,28.87
2019-01-29T06:03:05.881Z,29.03
2019-01-29T06:05:34.651Z,30.30
2019-01-29T06:08:05.112Z,30.30
2019-01-29T06:10:33.713Z,29.43
2019-01-29T06:13:02.282Z,29.07
2019-01-29T06:15:31.010Z,29.00
2019-01-29T06:17:59.698Z,28.97
2019-01-29T06:20:30.635Z,29.67
2019-01-29T06:22:59.254Z,29.37
2019-01-29T06:25:27.956Z,27.60
2019-01-29T06:27:56.680Z,27.50
2019-01-29T06:30:27.028Z,26.03
2019-01-29T06:32:55.792Z,28.73
2019-01-29T06:35:24.539Z,28.93
2019-01-29T06:37:53.278Z,29.63
2019-01-29T06:40:24.202Z,27.23
2019-01-29T06:42:52.966Z,26.70
2019-01-29T06:45:23.515Z,25.20
2019-01-29T06:47:52.381Z,22.87
2019-01-29T06:50:23.112Z,21.03
2019-01-29T06:52:51.800Z,19.60
2019-01-29T06:55:22.369Z,19.63
2019-01-29T06:57:55.401Z,19.03
2019-01-29T07:00:24.261Z,19.80
2019-01-29T07:02:53.523Z,20.40
2019-01-29T07:05:22.245Z,20.00
2019-01-29T07:07:51.016Z,20.20
2019-01-29T07:10:21.331Z,21.90
2019-01-29T07:12:50.052Z,24.10
2019-01-29T07:15:39.450Z,23.13
2019-01-29T07:18:10.112Z,24.83
2019-01-29T07:20:38.832Z,26.13
2019-01-29T07:23:07.552Z,27.53
2019-01-29T07:25:36.141Z,26.73
2019-01-29T07:28:04.907Z,26.50
2019-01-29T07:30:33.552Z,28.00
2019-01-29T07:33:02.201Z,27.27
2019-01-29T07:35:30.891Z,27.27
2019-01-29T07:37:59.541Z,26.90
2019-01-29T07:40:28.233Z,27.73
2019-01-29T07:42:56.889Z,28.30
2019-01-29T07:45:25.759Z,29.07
2019-01-29T07:47:54.410Z,28.53
2019-01-29T07:50:23.167Z,29.43
2019-01-29T07:52:51.943Z,29.50
2019-01-29T07:55:20.508Z,30.63
2019-01-29T07:57:49.087Z,30.50
2019-01-29T08:00:18.244Z,30.10
2019-01-29T08:02:46.898Z,30.17
2019-01-29T08:05:15.674Z,30.50
2019-01-29T08:07:44.393Z,31.57
2019-01-29T08:10:17.228Z,31.43
2019-01-29T08:12:45.875Z,31.77
2019-01-29T08:15:19.804Z,29.67
2019-01-29T08:17:48.919Z,31.97
2019-01-29T08:20:18.338Z,32.50
2019-01-29T08:22:47.208Z,29.80
2019-01-29T08:25:15.970Z,29.97
2019-01-29T08:27:44.698Z,32.27
2019-01-29T08:30:15.690Z,28.50
2019-01-29T08:32:44.453Z,29.10
2019-01-29T08:35:14.775Z,29.53
2019-01-29T08:37:43.538Z,29.83
2019-01-29T08:40:16.422Z,29.00
2019-01-29T08:42:45.286Z,30.07
2019-01-29T08:45:16.938Z,30.73
2019-01-29T08:47:45.697Z,30.87
2019-01-29T08:50:22.732Z,30.70
2019-01-29T08:52:51.413Z,29.23
2019-01-29T08:55:20.338Z,30.40
2019-01-29T08:57:49.095Z,30.33
2019-01-29T09:00:19.264Z,30.63
2019-01-29T09:02:48.156Z,30.30
2019-01-29T09:05:16.935Z,30.97
2019-01-29T09:07:45.699Z,31.20
2019-01-29T09:10:17.534Z,32.50
2019-01-29T09:12:46.256Z,30.07
2019-01-29T09:15:19.359Z,30.43
2019-01-29T09:17:48.279Z,29.23
2019-01-29T09:20:19.372Z,28.40
2019-01-29T09:22:48.143Z,25.97
2019-01-29T09:25:21.050Z,26.70
2019-01-29T09:27:47.194Z,27.57
2019-01-29T09:30:22.478Z,27.93
2019-01-29T09:32:51.253Z,28.23
2019-01-29T09:35:19.835Z,27.33
2019-01-29T09:37:48.557Z,26.97
2019-01-29T09:40:22.489Z,24.53
2019-01-29T09:42:51.200Z,26.30
2019-01-29T09:45:23.089Z,24.43
2019-01-29T09:47:51.820Z,26.53
2019-01-29T09:50:22.473Z,25.20
2019-01-29T09:52:51.890Z,25.53
2019-01-29T09:55:29.147Z,27.40
2019-01-29T09:57:52.633Z,26.17
2019-01-29T10:00:27.202Z,27.47
2019-01-29T10:02:55.958Z,26.50
2019-01-29T10:05:25.113Z,27.10
2019-01-29T10:07:53.773Z,26.43
2019-01-29T10:10:22.736Z,27.63
2019-01-29T10:12:51.498Z,26.67
2019-01-29T10:15:25.661Z,26.67
2019-01-29T10:17:54.658Z,28.53
2019-01-29T10:20:23.384Z,26.63
2019-01-29T10:22:52.553Z,26.47
2019-01-29T10:25:21.317Z,26.03
2019-01-29T10:27:50.089Z,26.07
2019-01-29T10:30:21.413Z,24.87
2019-01-29T10:32:50.140Z,24.27
2019-01-29T10:35:21.099Z,23.63
2019-01-29T10:37:49.816Z,22.70
2019-01-29T10:40:21.353Z,20.20
2019-01-29T10:42:50.174Z,20.23
2019-01-29T10:45:20.841Z,21.07
2019-01-29T10:47:49.550Z,21.47
2019-01-29T10:50:20.941Z,21.80
2019-01-29T10:52:49.863Z,20.93
2019-01-29T10:55:18.618Z,20.60
2019-01-29T10:57:47.538Z,22.67
2019-01-29T11:00:19.078Z,20.53
2019-01-29T11:02:47.930Z,20.17
2019-01-29T11:05:19.170Z,20.03
2019-01-29T11:07:47.885Z,19.87
2019-01-29T11:10:18.552Z,20.87
2019-01-29T11:12:47.206Z,20.23
2019-01-29T11:15:27.374Z,20.17
2019-01-29T11:17:56.130Z,19.53
2019-01-29T11:20:24.840Z,18.20
2019-01-29T11:22:53.605Z,18.27
2019-01-29T11:25:27.983Z,19.40
2019-01-29T11:27:56.743Z,18.53
2019-01-29T11:30:30.218Z,17.13
2019-01-29T11:32:58.980Z,17.27
2019-01-29T11:35:27.854Z,16.57
2019-01-29T11:37:56.620Z,15.33
2019-01-29T11:40:30.244Z,15.73
2019-01-29T11:42:59.005Z,16.00
2019-01-29T11:45:33.093Z,14.57
2019-01-29T11:48:01.925Z,13.10
2019-01-29T11:50:30.705Z,11.83
2019-01-29T11:52:59.460Z,11.93
2019-01-29T11:55:28.222Z,12.50
2019-01-29T11:57:57.092Z,12.57
2019-01-29T12:00:34.158Z,12.03
2019-01-29T12:03:02.865Z,11.20
2019-01-29T12:05:31.627Z,10.97
2019-01-29T12:08:00.482Z,10.63
2019-01-29T12:10:29.341Z,11.03
2019-01-29T12:12:58.166Z,10.23
2019-01-29T12:15:27.117Z,10.13
2019-01-29T12:17:55.911Z,9.40
2019-01-29T12:20:24.882Z,8.90
2019-01-29T12:22:53.542Z,8.83
2019-01-29T12:25:22.188Z,8.50
2019-01-29T12:27:50.892Z,8.77
2019-01-29T12:30:21.614Z,6.93
2019-01-29T12:32:51.504Z,6.40
2019-01-29T12:35:20.389Z,6.00
2019-01-29T12:37:49.003Z,6.37
2019-01-29T12:40:17.712Z,6.13
2019-01-29T12:42:46.432Z,6.50
2019-01-29T12:45:17.685Z,7.07
2019-01-29T12:47:46.608Z,6.53
2019-01-29T12:50:26.900Z,6.93
2019-01-29T12:52:59.974Z,6.67
2019-01-29T12:55:28.693Z,6.10
2019-01-29T12:57:57.439Z,5.37
2019-01-29T13:00:27.834Z,5.90
2019-01-29T13:02:56.576Z,5.90
2019-01-29T13:05:26.038Z,5.23
2019-01-29T13:07:54.691Z,5.40
2019-01-29T13:10:25.045Z,5.67
2019-01-29T13:12:53.753Z,5.53
2019-01-29T13:15:30.783Z,5.20
2019-01-29T13:18:00.705Z,4.77
2019-01-29T13:20:29.765Z,4.33
2019-01-29T13:22:58.525Z,4.67
2019-01-29T13:25:27.248Z,3.90
2019-01-29T13:27:55.861Z,3.90
2019-01-29T13:30:32.764Z,4.40
2019-01-29T13:33:01.585Z,4.80
2019-01-29T13:35:32.945Z,4.07
2019-01-29T13:38:01.666Z,4.83
2019-01-29T13:40:30.514Z,3.90
2019-01-29T13:42:59.272Z,4.30
2019-01-29T13:45:27.986Z,4.30
2019-01-29T13:47:56.627Z,4.30
2019-01-29T13:50:31.005Z,4.70
2019-01-29T13:52:59.612Z,4.00
2019-01-29T13:55:28.335Z,4.80
2019-01-29T13:57:57.107Z,4.47
2019-01-29T14:00:34.090Z,4.37
2019-01-29T14:03:03.450Z,4.77
2019-01-29T14:05:32.170Z,4.00
2019-01-29T14:08:00.782Z,4.40
2019-01-29T14:10:29.612Z,3.93
2019-01-29T14:12:58.328Z,4.50
2019-01-29T14:15:42.353Z,4.07
2019-01-29T14:18:11.571Z,4.10
2019-01-29T14:20:40.287Z,3.67
2019-01-29T14:23:09.738Z,3.80
2019-01-29T14:25:38.554Z,3.80
2019-01-29T14:28:07.509Z,3.30
2019-01-29T14:30:36.561Z,3.77
2019-01-29T14:33:06.278Z,3.70
2019-01-29T14:35:35.033Z,3.97
2019-01-29T14:38:12.218Z,3.63
2019-01-29T14:40:40.971Z,4.20
2019-01-29T14:43:13.006Z,4.37
2019-01-29T14:45:41.692Z,4.10
2019-01-29T14:48:10.340Z,4.40
2019-01-29T14:50:39.035Z,5.00
2019-01-29T14:53:07.754Z,4.73
2019-01-29T14:55:36.454Z,4.27
2019-01-29T14:58:05.812Z,4.03
2019-01-29T15:00:37.626Z,4.60
2019-01-29T15:03:06.483Z,4.87
2019-01-29T15:05:35.196Z,4.77
2019-01-29T15:08:03.881Z,4.23
2019-01-29T15:10:33.028Z,4.90
2019-01-29T15:13:01.891Z,4.43
2019-01-29T15:15:39.798Z,5.47
2019-01-29T15:18:19.129Z,4.47
2019-01-29T15:20:47.885Z,4.53
2019-01-29T15:23:16.597Z,5.27
2019-01-29T15:25:45.294Z,4.53
2019-01-29T15:28:13.869Z,4.93
2019-01-29T15:30:42.585Z,4.67
2019-01-29T15:33:11.215Z,4.67
2019-01-29T15:35:39.777Z,4.30
2019-01-29T15:38:08.488Z,4.10
2019-01-29T15:40:37.171Z,4.43
2019-01-29T15:43:06.426Z,4.43
2019-01-29T15:45:35.189Z,4.10
2019-01-29T15:48:04.034Z,4.60
2019-01-29T15:50:34.789Z,4.37
2019-01-29T15:53:03.500Z,4.00
2019-01-29T15:55:32.114Z,4.50
2019-01-29T15:58:00.873Z,4.27
2019-01-29T16:00:31.796Z,3.70
2019-01-29T16:03:00.517Z,3.70
2019-01-29T16:05:42.320Z,4.20
2019-01-29T16:08:14.095Z,3.90
2019-01-29T16:10:46.661Z,3.80
2019-01-29T16:13:15.310Z,3.70
2019-01-29T16:15:44.179Z,4.00
2019-01-29T16:18:13.701Z,4.17
2019-01-29T16:20:42.420Z,3.90
2019-01-29T16:23:11.160Z,3.80
2019-01-29T16:25:40.124Z,3.57
2019-01-29T16:28:08.847Z,4.40
2019-01-29T16:30:38.910Z,4.30
2019-01-29T16:33:07.824Z,4.20
2019-01-29T16:35:42.149Z,4.70
2019-01-29T16:38:10.902Z,4.90
2019-01-29T16:40:44.344Z,5.03
2019-01-29T16:43:13.462Z,4.53
2019-01-29T16:45:42.217Z,5.30
2019-01-29T16:48:12.043Z,4.23
2019-01-29T16:50:40.749Z,4.57
2019-01-29T16:53:09.807Z,4.47
2019-01-29T16:55:38.606Z,4.47
2019-01-29T16:58:08.096Z,5.23
2019-01-29T17:00:39.784Z,5.07
2019-01-29T17:03:08.598Z,5.50
2019-01-29T17:05:37.316Z,6.07
2019-01-29T17:08:06.282Z,5.20
2019-01-29T17:10:35.234Z,4.80
2019-01-29T17:13:04.586Z,5.33
2019-01-29T17:15:37.767Z,5.47
2019-01-29T17:18:08.225Z,5.60
2019-01-29T17:20:42.499Z,5.33
2019-01-29T17:23:11.641Z,5.53
2019-01-29T17:25:40.491Z,5.13
2019-01-29T17:28:09.258Z,5.03
2019-01-29T17:30:45.429Z,4.93
2019-01-29T17:33:16.531Z,4.70
2019-01-29T17:35:45.282Z,4.97
2019-01-29T17:38:14.032Z,5.00
2019-01-29T17:40:44.023Z,4.80
2019-01-29T17:43:12.700Z,4.80
2019-01-29T17:45:44.322Z,5.30
2019-01-29T17:48:12.968Z,5.07
2019-01-29T17:50:43.624Z,5.23
2019-01-29T17:53:12.538Z,5.30
2019-01-29T17:55:42.397Z,5.73
2019-01-29T17:58:11.955Z,5.50
2019-01-29T18:00:42.310Z,6.07
2019-01-29T18:03:11.068Z,5.57
2019-01-29T18:05:39.781Z,5.43
2019-01-29T18:08:08.469Z,5.93
2019-01-29T18:10:37.193Z,5.87
2019-01-29T18:13:05.955Z,5.97
2019-01-29T18:16:26.536Z,6.53
2019-01-29T18:18:55.163Z,6.43
2019-01-29T18:21:23.846Z,6.13
2019-01-29T18:23:52.490Z,6.80
2019-01-29T18:26:21.180Z,7.57
2019-01-29T18:28:49.959Z,6.77
2019-01-29T18:31:18.841Z,7.00
2019-01-29T18:33:47.418Z,6.97
2019-01-29T18:36:16.132Z,6.37
2019-01-29T18:38:44.901Z,7.03
2019-01-29T18:41:13.893Z,6.70
2019-01-29T18:43:45.414Z,6.30
2019-01-29T18:46:13.993Z,6.30
2019-01-29T18:48:42.646Z,7.10
2019-01-29T18:51:11.352Z,6.20
2019-01-29T18:53:39.925Z,6.90
2019-01-29T18:56:08.771Z,6.50
2019-01-29T18:58:37.488Z,6.43
2019-01-29T19:01:06.672Z,6.83
2019-01-29T19:03:35.227Z,6.20
2019-01-29T19:06:04.004Z,6.37
2019-01-29T19:08:32.729Z,7.43
2019-01-29T19:11:01.379Z,6.43
2019-01-29T19:13:30.228Z,6.87
2019-01-29T19:15:59.130Z,7.20
2019-01-29T19:18:27.878Z,7.17
2019-01-29T19:20:56.675Z,6.87
2019-01-29T19:23:25.534Z,6.87
2019-01-29T19:25:54.417Z,7.27
2019-01-29T19:28:23.461Z,7.20
2019-01-29T19:30:53.234Z,8.03
2019-01-29T19:33:21.953Z,7.73
2019-01-29T19:35:50.688Z,7.93
2019-01-29T19:38:19.468Z,8.03
2019-01-29T19:40:48.094Z,7.67
2019-01-29T19:43:16.714Z,7.53
2019-01-29T19:45:45.510Z,7.90
2019-01-29T19:48:14.161Z,7.47
2019-01-29T19:50:42.993Z,7.83
2019-01-29T19:53:11.625Z,7.60
2019-01-29T19:55:40.273Z,7.43
2019-01-29T19:58:09.517Z,8.13
2019-01-29T20:00:40.671Z,8.23
2019-01-29T20:03:09.432Z,8.07
2019-01-29T20:05:38.149Z,7.30
2019-01-29T20:08:06.908Z,7.90
2019-01-29T20:10:35.623Z,8.10
2019-01-29T20:13:04.693Z,8.00
2019-01-29T20:15:33.409Z,7.60
2019-01-29T20:18:02.065Z,8.03
2019-01-29T20:20:36.590Z,7.93
2019-01-29T20:23:07.962Z,8.40
2019-01-29T20:25:36.318Z,7.67
2019-01-29T20:28:06.661Z,7.43
2019-01-29T20:30:37.525Z,8.37
2019-01-29T20:33:06.547Z,7.90
2019-01-29T20:35:35.308Z,7.63
2019-01-29T20:38:04.628Z,8.40
2019-01-29T20:40:33.498Z,7.90
2019-01-29T20:43:02.146Z,7.87
2019-01-29T20:45:30.868Z,7.97
2019-01-29T20:47:59.692Z,7.40
2019-01-29T20:50:34.114Z,8.03
2019-01-29T20:53:02.922Z,7.40
2019-01-29T20:55:31.642Z,8.00
2019-01-29T20:58:00.264Z,7.87
2019-01-29T21:00:34.643Z,8.20
2019-01-29T21:03:03.292Z,8.33
2019-01-29T21:05:32.077Z,8.70
2019-01-29T21:08:00.896Z,9.10
2019-01-29T21:10:29.665Z,8.53
2019-01-29T21:12:58.349Z,9.07
2019-01-29T21:15:37.585Z,8.60
2019-01-29T21:17:58.596Z,8.27
2019-01-29T21:20:29.729Z,8.37
2019-01-29T21:22:58.454Z,10.47
2019-01-29T21:25:27.671Z,8.97
2019-01-29T21:27:56.302Z,8.13
2019-01-29T21:30:30.291Z,8.87
2019-01-29T21:32:59.132Z,8.60
2019-01-29T21:35:28.166Z,8.43
2019-01-29T21:37:56.897Z,8.07
2019-01-29T21:40:25.773Z,8.47
2019-01-29T21:42:54.626Z,8.23
2019-01-29T21:45:24.407Z,8.07
2019-01-29T21:47:55.380Z,8.23
2019-01-29T21:50:29.153Z,8.20
2019-01-29T21:52:58.008Z,8.20
2019-01-29T21:55:26.913Z,7.83
2019-01-29T21:57:55.694Z,7.90
2019-01-29T22:00:33.070Z,7.77
2019-01-29T22:03:01.967Z,7.60
2019-01-29T22:05:30.999Z,8.50
2019-01-29T22:07:59.825Z,7.13
2019-01-29T22:10:28.639Z,7.37
2019-01-29T22:12:57.584Z,7.70
2019-01-29T22:15:26.581Z,6.87
2019-01-29T22:17:55.247Z,7.40
2019-01-29T22:20:25.168Z,7.00
2019-01-29T22:22:53.927Z,7.43
2019-01-29T22:25:25.850Z,7.17
2019-01-29T22:27:54.493Z,6.03
2019-01-29T22:30:37.740Z,7.10
2019-01-29T22:33:06.693Z,6.07
2019-01-29T22:35:35.411Z,6.53
2019-01-29T22:38:04.091Z,6.77
2019-01-29T22:40:33.161Z,6.53
2019-01-29T22:43:02.286Z,6.47
2019-01-29T22:45:30.999Z,7.30
2019-01-29T22:47:59.753Z,6.63
2019-01-29T22:50:36.684Z,6.07
2019-01-29T22:53:05.625Z,6.07
2019-01-29T22:55:34.376Z,6.30
2019-01-29T22:58:03.100Z,6.50
2019-01-29T23:00:51.137Z,5.87
2019-01-29T23:03:25.429Z,6.87
2019-01-29T23:06:05.741Z,5.93
2019-01-29T23:08:34.383Z,5.87
2019-01-29T23:11:03.074Z,6.73
2019-01-29T23:13:31.641Z,6.20
2019-01-29T23:16:00.336Z,6.50
2019-01-29T23:18:29.052Z,6.33
2019-01-29T23:20:57.729Z,6.30
2019-01-29T23:23:26.422Z,5.83
2019-01-29T23:25:54.993Z,6.30
2019-01-29T23:28:23.617Z,6.63
2019-01-29T23:30:52.466Z,6.07
2019-01-29T23:33:21.117Z,6.47
2019-01-29T23:35:49.870Z,6.30
2019-01-29T23:38:18.569Z,6.27
2019-01-29T23:40:47.277Z,6.10
2019-01-29T23:43:15.894Z,6.30
2019-01-29T23:45:44.608Z,6.70
2019-01-29T23:48:13.385Z,6.53
2019-01-29T23:50:41.961Z,6.87
2019-01-29T23:53:10.608Z,6.33
2019-01-29T23:55:39.370Z,7.10
2019-01-29T23:58:08.094Z,6.73
